Terminal Aerodrome Forecast
Issued by NWS

Home | Current Version | Previous Version | Text Only | Print | Product List | Glossary On
Versions: 1 2 3 4 5 6 7 8 9 10 11 12 13 14 15 16 17
000
FTAK31 PANC 260308 AAA
TAFATK
TAF AMD
PATK 260308Z 2603/2624 05005KT P6SM SCT020 OVC050
      TEMPO 2604/2608 -RA BKN020
     FM260800 VRB03KT 4SM -RA BR SCT008 OVC012
     FM261800 24005KT P6SM SCT015 OVC030=

USA.gov is the U.S. government's official web portal to all federal, state and local government web resources and services.